createdAt,value
2023-06-25T00:01:54.924Z,17.90
2023-06-25T00:04:23.858Z,17.80
2023-06-25T00:06:52.050Z,17.90
2023-06-25T00:09:21.696Z,17.80
2023-06-25T00:11:52.603Z,17.80
2023-06-25T00:14:22.806Z,17.80
2023-06-25T00:17:00.585Z,17.80
2023-06-25T00:19:29.166Z,17.80
2023-06-25T00:21:57.772Z,17.80
2023-06-25T00:24:26.837Z,17.70
2023-06-25T00:26:56.761Z,17.70
2023-06-25T00:29:24.972Z,17.70
2023-06-25T00:31:58.441Z,17.70
2023-06-25T00:34:26.708Z,17.60
2023-06-25T00:36:55.875Z,17.60
2023-06-25T00:39:24.799Z,17.60
2023-06-25T00:41:52.988Z,17.60
2023-06-25T00:44:29.784Z,17.60
2023-06-25T00:47:00.992Z,17.50
2023-06-25T00:49:35.818Z,17.50
2023-06-25T00:52:12.459Z,17.50
2023-06-25T00:54:42.892Z,17.50
2023-06-25T00:57:12.353Z,17.40
2023-06-25T00:59:43.565Z,17.40
2023-06-25T01:02:20.937Z,17.40
2023-06-25T01:04:58.841Z,17.40
2023-06-25T01:07:27.961Z,17.30
2023-06-25T01:09:58.171Z,17.30
2023-06-25T01:12:26.762Z,17.30
2023-06-25T01:14:58.233Z,17.30
2023-06-25T01:17:27.915Z,17.20
2023-06-25T01:19:57.847Z,17.20
2023-06-25T01:22:34.952Z,17.20
2023-06-25T01:25:03.884Z,17.20
2023-06-25T01:27:34.581Z,17.20
2023-06-25T01:30:03.239Z,17.10
2023-06-25T01:32:32.003Z,17.00
2023-06-25T01:35:02.453Z,17.00
2023-06-25T01:37:32.311Z,17.00
2023-06-25T01:40:02.121Z,17.00
2023-06-25T01:42:31.819Z,16.90
2023-06-25T01:45:02.581Z,16.90
2023-06-25T01:47:30.885Z,16.90
2023-06-25T01:49:59.089Z,16.90
2023-06-25T01:52:27.751Z,16.80
2023-06-25T01:54:57.841Z,16.80
2023-06-25T01:57:25.986Z,16.80
2023-06-25T01:59:58.200Z,16.80
2023-06-25T02:02:26.662Z,16.70
2023-06-25T02:04:55.256Z,16.70
2023-06-25T02:07:23.861Z,16.70
2023-06-25T02:09:52.571Z,16.60
2023-06-25T02:12:26.438Z,16.60
2023-06-25T02:14:54.721Z,16.60
2023-06-25T02:17:22.859Z,16.60
2023-06-25T02:19:52.837Z,16.50
2023-06-25T02:22:21.201Z,16.50
2023-06-25T02:24:54.924Z,16.50
2023-06-25T02:27:24.484Z,16.50
2023-06-25T02:29:52.904Z,16.40
2023-06-25T02:32:21.267Z,16.40
2023-06-25T02:34:52.985Z,16.40
2023-06-25T02:37:21.250Z,16.40
2023-06-25T02:39:49.920Z,16.40
2023-06-25T02:42:19.904Z,16.30
2023-06-25T02:44:49.573Z,16.40
2023-06-25T02:47:22.957Z,16.30
2023-06-25T02:49:51.691Z,16.30
2023-06-25T02:52:20.029Z,16.30
2023-06-25T02:54:48.782Z,16.30
2023-06-25T02:57:17.889Z,16.40
2023-06-25T02:59:49.875Z,16.30
2023-06-25T03:02:19.585Z,16.30
2023-06-25T03:04:49.877Z,16.30
2023-06-25T03:07:18.256Z,16.30
2023-06-25T03:09:47.273Z,16.40
2023-06-25T03:12:18.218Z,16.40
2023-06-25T03:14:46.390Z,16.40
2023-06-25T03:17:14.602Z,16.40
2023-06-25T03:19:44.938Z,16.40
2023-06-25T03:22:13.068Z,16.40
2023-06-25T03:24:46.477Z,16.40
2023-06-25T03:27:14.719Z,16.40
2023-06-25T03:29:43.865Z,16.50
2023-06-25T03:32:12.445Z,16.50
2023-06-25T03:34:41.868Z,16.60
2023-06-25T03:37:11.472Z,16.60
2023-06-25T03:39:42.953Z,16.70
2023-06-25T03:42:11.250Z,16.70
2023-06-25T03:44:41.903Z,16.70
2023-06-25T03:47:10.962Z,16.80
2023-06-25T03:49:43.244Z,16.80
2023-06-25T03:52:13.685Z,16.90
2023-06-25T03:54:43.270Z,16.90
2023-06-25T03:57:12.686Z,16.90
2023-06-25T03:59:40.960Z,17.00
2023-06-25T04:02:10.950Z,17.00
2023-06-25T04:04:39.139Z,17.10
2023-06-25T04:07:09.028Z,17.10
2023-06-25T04:09:39.243Z,17.10
2023-06-25T04:12:09.411Z,17.20
2023-06-25T04:14:42.840Z,17.30
2023-06-25T04:17:11.922Z,17.30
2023-06-25T04:19:40.821Z,17.30
2023-06-25T04:22:14.504Z,17.30
2023-06-25T04:24:44.086Z,17.40
2023-06-25T04:27:12.576Z,17.40
2023-06-25T04:29:43.029Z,17.40
2023-06-25T04:32:15.090Z,17.40
2023-06-25T04:34:43.698Z,17.40
2023-06-25T04:37:12.792Z,17.40
2023-06-25T04:39:43.941Z,17.40
2023-06-25T04:42:13.039Z,17.50
2023-06-25T04:44:41.790Z,17.50
2023-06-25T04:47:10.988Z,17.60
2023-06-25T04:49:39.942Z,17.60
2023-06-25T04:52:09.019Z,17.70
2023-06-25T04:54:37.173Z,17.80
2023-06-25T04:57:11.012Z,17.80
2023-06-25T04:59:39.943Z,17.90
2023-06-25T05:02:08.684Z,18.00
2023-06-25T05:04:36.999Z,18.00
2023-06-25T05:07:06.317Z,18.00
2023-06-25T05:09:34.545Z,18.10
2023-06-25T05:12:08.782Z,18.20
2023-06-25T05:14:38.771Z,18.20
2023-06-25T05:17:07.925Z,18.30
2023-06-25T05:19:38.006Z,18.40
2023-06-25T05:22:07.293Z,18.50
2023-06-25T05:24:36.131Z,18.60
2023-06-25T05:27:06.037Z,18.70
2023-06-25T05:29:35.567Z,18.80
2023-06-25T05:32:04.010Z,18.90
2023-06-25T05:34:35.288Z,18.90
2023-06-25T05:37:03.646Z,19.00
2023-06-25T05:39:31.948Z,19.10
2023-06-25T05:42:00.972Z,19.10
2023-06-25T05:44:29.944Z,19.20
2023-06-25T05:49:51.464Z,19.30
2023-06-25T05:52:19.743Z,19.40
2023-06-25T05:54:48.752Z,19.50
2023-06-25T05:57:18.904Z,19.60
2023-06-25T05:59:47.205Z,19.70
2023-06-25T06:02:16.833Z,19.70
2023-06-25T06:04:46.050Z,19.80
2023-06-25T06:07:14.331Z,19.90
2023-06-25T06:09:47.071Z,20.00
2023-06-25T06:12:15.431Z,20.10
2023-06-25T06:14:43.556Z,20.20
2023-06-25T06:17:12.959Z,20.30
2023-06-25T06:19:42.545Z,20.30
2023-06-25T06:22:11.024Z,20.40
2023-06-25T06:24:42.169Z,20.40
2023-06-25T06:27:11.069Z,20.50
2023-06-25T06:29:39.280Z,20.60
2023-06-25T06:32:08.887Z,20.70
2023-06-25T06:34:38.989Z,20.80
2023-06-25T06:37:13.646Z,20.80
2023-06-25T06:39:41.891Z,20.90
2023-06-25T06:42:10.137Z,20.90
2023-06-25T06:44:41.032Z,21.00
2023-06-25T06:47:09.353Z,21.00
2023-06-25T06:49:37.864Z,21.10
2023-06-25T06:52:08.030Z,21.20
2023-06-25T06:54:37.520Z,21.30
2023-06-25T06:57:06.512Z,21.40
2023-06-25T06:59:34.889Z,21.40
2023-06-25T07:02:03.323Z,21.50
2023-06-25T07:04:31.603Z,21.50
2023-06-25T07:07:01.519Z,21.60
2023-06-25T07:09:30.170Z,21.50
2023-06-25T07:12:00.071Z,21.50
2023-06-25T07:14:28.410Z,21.50
2023-06-25T07:16:57.158Z,21.50
2023-06-25T07:19:25.452Z,21.50
2023-06-25T07:21:53.727Z,21.60
2023-06-25T07:24:23.378Z,21.60
2023-06-25T07:26:51.588Z,21.70
2023-06-25T07:29:21.121Z,21.70
2023-06-25T07:31:49.757Z,21.80
2023-06-25T07:34:18.078Z,21.90
2023-06-25T07:36:46.924Z,22.00
2023-06-25T07:39:30.422Z,22.10
2023-06-25T07:42:01.086Z,22.20
2023-06-25T07:47:02.624Z,22.30
2023-06-25T07:49:30.891Z,22.40
2023-06-25T07:52:02.126Z,22.50
2023-06-25T07:54:30.412Z,22.50
2023-06-25T07:56:59.004Z,22.60
2023-06-25T07:59:39.059Z,22.70
2023-06-25T08:02:18.592Z,22.70
2023-06-25T08:04:47.984Z,22.80
2023-06-25T08:07:16.384Z,22.80
2023-06-25T08:09:45.315Z,22.90
2023-06-25T08:12:15.362Z,22.80
2023-06-25T08:14:46.029Z,22.90
2023-06-25T08:17:14.289Z,23.00
2023-06-25T08:19:43.976Z,23.10
2023-06-25T08:22:12.247Z,23.10
2023-06-25T08:24:40.676Z,23.20
2023-06-25T08:27:08.917Z,23.20
2023-06-25T08:29:39.393Z,23.20
2023-06-25T08:32:08.763Z,23.30
2023-06-25T08:34:39.123Z,23.30
2023-06-25T08:37:08.715Z,23.30
2023-06-25T08:39:40.440Z,23.30
2023-06-25T08:42:09.068Z,23.40
2023-06-25T08:44:42.182Z,23.50
2023-06-25T08:47:16.532Z,23.60
2023-06-25T08:49:46.229Z,23.70
2023-06-25T08:52:15.979Z,23.80
2023-06-25T08:54:50.264Z,23.80
2023-06-25T08:57:18.790Z,23.70
2023-06-25T08:59:46.970Z,23.70
2023-06-25T09:02:15.471Z,23.70
2023-06-25T09:04:44.390Z,23.70
2023-06-25T09:07:17.849Z,23.80
2023-06-25T09:09:46.908Z,24.00
2023-06-25T09:12:15.230Z,24.00
2023-06-25T09:14:43.655Z,24.10
2023-06-25T09:17:12.250Z,24.10
2023-06-25T09:19:45.276Z,24.20
2023-06-25T09:22:13.624Z,24.20
2023-06-25T09:24:46.071Z,24.30
2023-06-25T09:27:14.341Z,24.50
2023-06-25T09:29:44.236Z,24.70
2023-06-25T09:32:13.180Z,24.90
2023-06-25T09:34:43.158Z,24.90
2023-06-25T09:37:11.491Z,24.90
2023-06-25T09:39:39.893Z,24.90
2023-06-25T09:42:11.001Z,24.90
2023-06-25T09:44:41.901Z,25.00
2023-06-25T09:47:14.591Z,25.00
2023-06-25T09:49:44.093Z,25.10
2023-06-25T09:52:17.408Z,25.30
2023-06-25T09:54:48.364Z,25.40
2023-06-25T09:57:20.712Z,25.60
2023-06-25T09:59:53.198Z,25.70
2023-06-25T10:02:22.714Z,25.60
2023-06-25T10:04:51.679Z,25.50
2023-06-25T10:07:20.336Z,25.40
2023-06-25T10:09:56.149Z,25.30
2023-06-25T10:12:25.917Z,25.20
2023-06-25T10:14:55.689Z,25.20
2023-06-25T10:17:25.442Z,25.20
2023-06-25T10:19:59.106Z,25.20
2023-06-25T10:22:28.665Z,25.20
2023-06-25T10:24:58.036Z,25.20
2023-06-25T10:27:34.347Z,25.20
2023-06-25T10:30:14.390Z,25.30
2023-06-25T10:32:43.765Z,25.40
2023-06-25T10:35:20.121Z,25.60
2023-06-25T10:37:48.357Z,25.70
2023-06-25T10:40:16.982Z,25.80
2023-06-25T10:42:53.476Z,25.80
2023-06-25T10:45:21.756Z,26.00
2023-06-25T10:47:50.157Z,26.20
2023-06-25T10:50:19.384Z,26.40
2023-06-25T10:52:47.814Z,26.60
2023-06-25T10:55:16.124Z,26.90
2023-06-25T10:57:44.991Z,27.00
2023-06-25T11:00:15.704Z,27.10
2023-06-25T11:02:44.255Z,27.10
2023-06-25T11:05:12.616Z,27.10
2023-06-25T11:07:40.796Z,27.10
2023-06-25T11:10:09.862Z,27.20
2023-06-25T11:12:38.058Z,27.30
2023-06-25T11:15:10.167Z,27.40
2023-06-25T11:17:39.904Z,27.60
2023-06-25T11:20:08.792Z,27.80
2023-06-25T11:22:41.782Z,27.90
2023-06-25T11:25:14.209Z,27.90
2023-06-25T11:27:43.104Z,28.00
2023-06-25T11:30:12.046Z,28.10
2023-06-25T11:32:41.836Z,28.30
2023-06-25T11:35:13.976Z,28.50
2023-06-25T11:37:47.188Z,28.70
2023-06-25T11:40:25.585Z,28.80
2023-06-25T11:42:54.802Z,28.70
2023-06-25T11:45:23.915Z,28.70
2023-06-25T11:47:55.511Z,28.60
2023-06-25T11:50:25.029Z,28.40
2023-06-25T11:52:54.389Z,28.10
2023-06-25T11:55:23.333Z,28.00
2023-06-25T11:57:51.553Z,28.00
2023-06-25T12:00:22.452Z,28.20
2023-06-25T12:02:51.134Z,28.30
2023-06-25T12:05:20.788Z,28.60
2023-06-25T12:07:48.966Z,28.80
2023-06-25T12:10:17.113Z,29.00
2023-06-25T12:12:46.278Z,29.10
2023-06-25T12:15:14.554Z,29.30
2023-06-25T12:17:44.621Z,29.40
2023-06-25T12:20:12.943Z,29.40
2023-06-25T12:22:42.470Z,29.30
2023-06-25T12:25:10.848Z,29.20
2023-06-25T12:27:40.850Z,29.00
2023-06-25T12:30:15.030Z,28.80
2023-06-25T12:32:43.571Z,28.50
2023-06-25T12:35:11.850Z,28.30
2023-06-25T12:37:40.175Z,28.20
2023-06-25T12:40:11.193Z,28.10
2023-06-25T12:42:41.231Z,28.00
2023-06-25T12:45:10.416Z,27.90
2023-06-25T12:47:39.267Z,28.10
2023-06-25T12:50:09.328Z,28.40
2023-06-25T12:52:37.512Z,28.70
2023-06-25T12:55:07.216Z,28.90
2023-06-25T12:57:37.188Z,29.00
2023-06-25T13:00:07.739Z,29.30
2023-06-25T13:02:38.469Z,29.40
2023-06-25T13:05:09.649Z,29.40
2023-06-25T13:07:37.796Z,29.30
2023-06-25T13:10:06.863Z,29.40
2023-06-25T13:12:38.719Z,29.80
2023-06-25T13:15:11.340Z,30.00
2023-06-25T13:17:40.922Z,30.20
2023-06-25T13:20:11.166Z,30.30
2023-06-25T13:22:39.400Z,30.30
2023-06-25T13:25:07.929Z,30.00
2023-06-25T13:27:39.321Z,30.00
2023-06-25T13:30:09.271Z,30.10
2023-06-25T13:32:37.690Z,29.90
2023-06-25T13:35:07.274Z,30.10
2023-06-25T13:37:35.357Z,31.20
2023-06-25T13:40:04.561Z,33.60
2023-06-25T13:42:35.282Z,35.70
2023-06-25T13:45:05.163Z,38.00
2023-06-25T13:47:33.301Z,40.00
2023-06-25T13:50:01.926Z,41.80
2023-06-25T13:52:30.166Z,42.80
2023-06-25T13:55:03.466Z,43.20
2023-06-25T13:57:31.658Z,43.60
2023-06-25T13:59:59.997Z,42.70
2023-06-25T14:02:30.454Z,41.20
2023-06-25T14:04:58.634Z,39.60
2023-06-25T14:07:29.742Z,37.60
2023-06-25T14:09:58.054Z,36.00
2023-06-25T14:12:27.360Z,34.40
2023-06-25T14:14:56.317Z,33.50
2023-06-25T14:17:25.431Z,32.70
2023-06-25T14:19:55.226Z,32.20
2023-06-25T14:22:24.700Z,31.70
2023-06-25T14:24:54.376Z,31.30
2023-06-25T14:27:22.510Z,31.00
2023-06-25T14:29:51.306Z,30.70
2023-06-25T14:32:19.623Z,30.50
2023-06-25T14:34:47.884Z,30.20
2023-06-25T14:37:17.601Z,30.10
2023-06-25T14:39:46.313Z,30.40
2023-06-25T14:42:15.346Z,31.20
2023-06-25T14:44:44.365Z,31.80
2023-06-25T14:47:14.356Z,31.90
2023-06-25T14:49:42.663Z,31.60
2023-06-25T14:52:10.838Z,31.20
2023-06-25T14:54:41.735Z,30.80
2023-06-25T14:57:09.921Z,30.40
2023-06-25T14:59:38.426Z,30.00
2023-06-25T15:02:07.713Z,29.70
2023-06-25T15:04:36.119Z,29.50
2023-06-25T15:07:05.474Z,29.20
2023-06-25T15:09:34.982Z,29.10
2023-06-25T15:12:05.009Z,28.90
2023-06-25T15:14:33.271Z,28.80
2023-06-25T15:17:02.418Z,28.70
2023-06-25T15:19:30.585Z,28.50
2023-06-25T15:22:02.322Z,28.40
2023-06-25T15:24:30.555Z,28.30
2023-06-25T15:27:00.364Z,28.10
2023-06-25T15:29:31.196Z,28.00
2023-06-25T15:32:01.368Z,28.00
2023-06-25T15:34:29.590Z,28.00
2023-06-25T15:36:59.431Z,28.00
2023-06-25T15:39:28.395Z,28.10
2023-06-25T15:41:56.615Z,28.20
2023-06-25T15:44:25.448Z,28.50
2023-06-25T15:46:55.097Z,28.90
2023-06-25T15:49:28.377Z,29.90
2023-06-25T15:51:57.365Z,31.70
2023-06-25T15:54:26.691Z,33.90
2023-06-25T15:56:55.109Z,36.30
2023-06-25T15:59:24.267Z,38.30
2023-06-25T16:01:54.441Z,39.90
2023-06-25T16:04:23.237Z,41.30
2023-06-25T16:06:52.752Z,42.30
2023-06-25T16:09:21.006Z,42.70
2023-06-25T16:11:54.555Z,43.30
2023-06-25T16:14:22.831Z,43.50
2023-06-25T16:16:51.405Z,43.40
2023-06-25T16:19:51.562Z,43.70
2023-06-25T16:22:10.652Z,43.90
2023-06-25T16:24:38.856Z,44.20
2023-06-25T16:27:07.650Z,44.20
2023-06-25T16:29:37.469Z,44.20
2023-06-25T16:32:06.403Z,43.80
2023-06-25T16:34:38.217Z,43.70
2023-06-25T16:37:06.455Z,43.20
2023-06-25T16:39:35.480Z,43.00
2023-06-25T16:42:04.514Z,42.80
2023-06-25T16:44:32.746Z,42.40
2023-06-25T16:47:01.622Z,41.60
2023-06-25T16:49:33.504Z,40.40
2023-06-25T16:52:03.150Z,38.90
2023-06-25T16:54:32.246Z,37.20
2023-06-25T16:57:00.594Z,36.10
2023-06-25T16:59:30.072Z,35.20
2023-06-25T17:02:05.509Z,34.20
2023-06-25T17:04:35.952Z,33.20
2023-06-25T17:07:09.531Z,32.60
2023-06-25T17:09:39.526Z,32.00
2023-06-25T17:12:08.595Z,31.50
2023-06-25T17:14:36.756Z,31.00
2023-06-25T17:17:05.375Z,30.70
2023-06-25T17:19:37.423Z,30.40
2023-06-25T17:22:07.070Z,30.10
2023-06-25T17:24:35.352Z,29.80
2023-06-25T17:27:03.989Z,29.50
2023-06-25T17:29:32.286Z,29.30
2023-06-25T17:32:00.671Z,29.10
2023-06-25T17:34:28.944Z,28.90
2023-06-25T17:36:58.383Z,28.80
2023-06-25T17:39:27.934Z,28.70
2023-06-25T17:41:56.195Z,28.60
2023-06-25T17:44:24.520Z,28.60
2023-06-25T17:46:52.712Z,28.50
2023-06-25T17:49:20.913Z,28.40
2023-06-25T17:51:49.136Z,28.30
2023-06-25T17:54:20.464Z,28.20
2023-06-25T17:56:50.683Z,28.10
2023-06-25T17:59:19.115Z,28.00
2023-06-25T18:01:47.582Z,27.90
2023-06-25T18:04:16.548Z,27.70
2023-06-25T18:06:46.000Z,27.60
2023-06-25T18:09:16.385Z,27.50
2023-06-25T18:11:44.668Z,27.40
2023-06-25T18:14:14.368Z,27.20
2023-06-25T18:16:42.678Z,27.10
2023-06-25T18:19:10.920Z,27.00
2023-06-25T18:21:39.175Z,26.80
2023-06-25T18:24:11.328Z,26.60
2023-06-25T18:26:43.228Z,26.50
2023-06-25T18:29:17.609Z,26.30
2023-06-25T18:31:47.572Z,26.20
2023-06-25T18:34:16.601Z,25.90
2023-06-25T18:36:46.566Z,25.80
2023-06-25T18:39:18.275Z,25.60
2023-06-25T18:41:46.534Z,25.50
2023-06-25T18:44:17.609Z,25.30
2023-06-25T18:46:45.944Z,25.20
2023-06-25T18:49:15.384Z,25.10
2023-06-25T18:51:43.688Z,24.90
2023-06-25T18:54:13.526Z,24.80
2023-06-25T18:56:42.640Z,24.70
2023-06-25T18:59:11.693Z,24.50
2023-06-25T19:01:42.533Z,24.40
2023-06-25T19:04:12.036Z,24.30
2023-06-25T19:06:41.965Z,24.10
2023-06-25T19:09:12.345Z,24.00
2023-06-25T19:11:40.731Z,23.90
2023-06-25T19:14:08.893Z,23.80
2023-06-25T19:16:37.106Z,23.70
2023-06-25T19:19:09.713Z,23.70
2023-06-25T19:21:37.900Z,23.50
2023-06-25T19:24:06.640Z,23.50
2023-06-25T19:26:34.972Z,23.40
2023-06-25T19:29:03.413Z,23.30
2023-06-25T19:31:31.622Z,23.20
2023-06-25T19:33:59.793Z,23.20
2023-06-25T19:36:30.248Z,23.10
2023-06-25T19:38:58.467Z,23.00
2023-06-25T19:41:26.761Z,22.90
2023-06-25T19:43:55.618Z,22.80
2023-06-25T19:46:24.006Z,22.70
2023-06-25T19:48:52.609Z,22.70
2023-06-25T19:51:20.937Z,22.60
2023-06-25T19:53:50.735Z,22.50
2023-06-25T19:56:19.708Z,22.40
2023-06-25T19:58:48.550Z,22.30
2023-06-25T20:01:17.011Z,22.30
2023-06-25T20:03:46.621Z,22.20
2023-06-25T20:06:14.800Z,22.10
2023-06-25T20:08:46.412Z,22.00
2023-06-25T20:11:16.189Z,21.90
2023-06-25T20:13:48.741Z,21.80
2023-06-25T20:16:17.070Z,21.80
2023-06-25T20:18:45.194Z,21.70
2023-06-25T20:21:14.464Z,21.60
2023-06-25T20:23:44.896Z,21.60
2023-06-25T20:26:13.315Z,21.50
2023-06-25T20:28:44.010Z,21.40
2023-06-25T20:31:12.270Z,21.30
2023-06-25T20:33:40.537Z,21.30
2023-06-25T20:36:10.365Z,21.20
2023-06-25T20:38:39.609Z,21.10
2023-06-25T20:41:23.557Z,21.10
2023-06-25T20:43:58.478Z,21.00
2023-06-25T20:46:28.161Z,21.00
2023-06-25T20:48:56.634Z,20.90
2023-06-25T20:51:26.056Z,20.80
2023-06-25T20:53:54.434Z,20.80
2023-06-25T20:56:26.452Z,20.70
2023-06-25T20:58:55.684Z,20.70
2023-06-25T21:01:25.882Z,20.60
2023-06-25T21:03:55.708Z,20.60
2023-06-25T21:06:23.999Z,20.60
2023-06-25T21:08:54.511Z,20.60
2023-06-25T21:11:22.671Z,20.50
2023-06-25T21:13:51.680Z,20.40
2023-06-25T21:16:20.128Z,20.40
2023-06-25T21:18:49.626Z,20.30
2023-06-25T21:21:22.392Z,20.30
2023-06-25T21:23:50.750Z,20.20
2023-06-25T21:26:19.070Z,20.20
2023-06-25T21:28:47.660Z,20.10
2023-06-25T21:31:15.979Z,20.10
2023-06-25T21:33:44.581Z,20.00
2023-06-25T21:36:14.151Z,20.00
2023-06-25T21:38:46.687Z,20.00
2023-06-25T21:41:15.633Z,20.00
2023-06-25T21:43:43.809Z,19.90
2023-06-25T21:46:12.664Z,19.90
2023-06-25T21:48:41.726Z,19.80
2023-06-25T21:51:09.948Z,19.80
2023-06-25T21:53:39.669Z,19.80
2023-06-25T21:56:11.020Z,19.70
2023-06-25T21:58:39.711Z,19.60
2023-06-25T22:01:08.803Z,19.60
2023-06-25T22:03:37.639Z,19.60
2023-06-25T22:06:06.484Z,19.60
2023-06-25T22:08:34.631Z,19.50
2023-06-25T22:11:05.788Z,19.40
2023-06-25T22:13:35.510Z,19.30
2023-06-25T22:16:03.748Z,19.30
2023-06-25T22:18:34.567Z,19.20
2023-06-25T22:21:06.692Z,19.20
2023-06-25T22:23:35.462Z,19.10
2023-06-25T22:26:05.706Z,19.10
2023-06-25T22:28:34.712Z,19.00
2023-06-25T22:31:02.997Z,19.00
2023-06-25T22:33:31.226Z,18.90
2023-06-25T22:36:00.763Z,18.90
2023-06-25T22:38:28.865Z,18.80
2023-06-25T22:40:57.195Z,18.80
2023-06-25T22:43:30.584Z,18.80
2023-06-25T22:45:58.724Z,18.70
2023-06-25T22:48:27.662Z,18.70
2023-06-25T22:50:55.944Z,18.70
2023-06-25T22:53:25.675Z,18.70
2023-06-25T22:55:53.872Z,18.70
2023-06-25T22:58:30.180Z,18.60
2023-06-25T23:00:58.431Z,18.60
2023-06-25T23:03:26.823Z,18.50
2023-06-25T23:05:55.695Z,18.50
2023-06-25T23:08:26.741Z,18.40
2023-06-25T23:10:54.922Z,18.40
2023-06-25T23:13:26.732Z,18.40
2023-06-25T23:15:55.788Z,18.40
2023-06-25T23:18:24.699Z,18.30
2023-06-25T23:20:54.771Z,18.30
2023-06-25T23:23:27.095Z,18.30
2023-06-25T23:25:55.577Z,18.20
2023-06-25T23:28:23.893Z,18.10
2023-06-25T23:30:53.328Z,18.10
2023-06-25T23:33:23.281Z,18.10
2023-06-25T23:35:51.731Z,18.00
2023-06-25T23:38:23.528Z,18.00
2023-06-25T23:40:52.777Z,18.00
2023-06-25T23:43:20.926Z,18.00
2023-06-25T23:45:49.228Z,17.90
2023-06-25T23:48:24.043Z,17.90
2023-06-25T23:50:52.716Z,17.80
2023-06-25T23:53:21.695Z,17.80
2023-06-25T23:55:50.719Z,17.80
2023-06-25T23:58:18.812Z,17.80
